Time;durP1;ratioP1;P1;durP2;ratioP2;P2;SDS_P1;SDS_P2;PMS_P1;PMS_P2;Temp;Humidity;BMP_temperature;BMP_pressure;BME280_temperature;BME280_humidity;BME280_pressure;Samples;Min_cycle;Max_cycle;Signal;HPM_P1;HPM_P2
2023/06/10 00:00:15;;;;;;;9.88;4.45;;;16.20;99.90;;;;;;4920129;29;20047;-88
2023/06/10 00:02:41;;;;;;;11.70;4.00;;;16.20;99.90;;;;;;4919731;29;20043;-89
2023/06/10 00:05:09;;;;;;;10.02;4.60;;;16.10;99.90;;;;;;4918680;29;20160;-87
2023/06/10 00:07:41;;;;;;;11.32;4.63;;;16.00;99.90;;;;;;4938092;28;20134;-89
2023/06/10 00:10:08;;;;;;;12.65;4.55;;;15.90;99.90;;;;;;4938996;28;20046;-89
2023/06/10 00:12:36;;;;;;;9.85;4.63;;;15.90;99.90;;;;;;4931818;29;20078;-89
2023/06/10 00:15:04;;;;;;;8.05;4.18;;;15.80;99.90;;;;;;4921308;28;20047;-89
2023/06/10 00:17:30;;;;;;;8.48;4.63;;;15.80;99.90;;;;;;4930459;29;20051;-88
2023/06/10 00:19:57;;;;;;;12.27;4.72;;;15.70;99.90;;;;;;4918336;29;20054;-87
2023/06/10 00:22:24;;;;;;;8.90;4.25;;;15.70;99.90;;;;;;4927746;28;20042;-89
2023/06/10 00:24:50;;;;;;;16.38;4.72;;;15.60;99.90;;;;;;4919991;29;20114;-88
2023/06/10 00:27:16;;;;;;;13.43;4.53;;;15.60;99.90;;;;;;4919343;29;20586;-88
2023/06/10 00:29:42;;;;;;;9.77;4.40;;;15.50;99.90;;;;;;4919455;29;20111;-88
2023/06/10 00:32:08;;;;;;;8.43;4.40;;;15.40;99.90;;;;;;4927894;28;20051;-88
2023/06/10 00:34:34;;;;;;;10.10;4.32;;;15.40;99.90;;;;;;4940966;29;20476;-89
2023/06/10 00:36:59;;;;;;;11.57;4.80;;;15.30;99.90;;;;;;4921237;29;20043;-88
2023/06/10 00:39:25;;;;;;;7.93;4.35;;;15.20;99.90;;;;;;4914106;29;20046;-88
2023/06/10 00:41:51;;;;;;;12.82;4.65;;;15.20;99.90;;;;;;4926907;28;20415;-89
2023/06/10 00:44:16;;;;;;;11.85;4.35;;;15.20;99.90;;;;;;4921395;28;20039;-90
2023/06/10 00:46:43;;;;;;;10.52;4.60;;;15.10;99.90;;;;;;4923612;29;20050;-89
2023/06/10 00:49:09;;;;;;;8.85;4.70;;;15.10;99.90;;;;;;4930516;28;20082;-88
2023/06/10 00:51:36;;;;;;;12.85;4.70;;;15.00;99.90;;;;;;4926177;29;20125;-89
2023/06/10 00:54:03;;;;;;;13.02;5.10;;;14.90;99.90;;;;;;4929270;28;20059;-88
2023/06/10 00:56:28;;;;;;;13.68;5.22;;;14.90;99.90;;;;;;4918444;29;20420;-87
2023/06/10 00:58:54;;;;;;;10.60;4.35;;;14.80;99.90;;;;;;4917566;28;20051;-88
2023/06/10 01:01:20;;;;;;;13.18;4.85;;;14.70;99.90;;;;;;4926353;29;20050;-89
2023/06/10 01:03:47;;;;;;;9.60;4.47;;;14.70;99.90;;;;;;4928876;29;20105;-88
2023/06/10 01:06:23;;;;;;;11.07;4.93;;;14.60;99.90;;;;;;4926238;28;20396;-89
2023/06/10 01:09:00;;;;;;;11.40;4.80;;;14.60;99.90;;;;;;4917400;29;20059;-89
2023/06/10 01:11:32;;;;;;;12.27;5.20;;;14.50;99.90;;;;;;4906297;29;20055;-89
2023/06/10 01:13:59;;;;;;;11.23;4.63;;;14.40;99.90;;;;;;4923331;28;20130;-89
2023/06/10 01:16:25;;;;;;;12.18;4.85;;;14.50;99.90;;;;;;4935421;28;20043;-88
2023/06/10 01:18:52;;;;;;;8.55;4.75;;;14.50;99.90;;;;;;4917873;29;20079;-89
2023/06/10 01:21:24;;;;;;;10.45;4.30;;;14.40;99.90;;;;;;4916723;29;20484;-89
2023/06/10 01:23:52;;;;;;;10.45;4.57;;;14.40;99.90;;;;;;4906608;29;20090;-89
2023/06/10 01:26:28;;;;;;;14.25;4.75;;;14.40;99.90;;;;;;4929352;28;20081;-89
2023/06/10 01:29:10;;;;;;;21.15;5.00;;;14.40;99.90;;;;;;4917506;29;20101;-89
2023/06/10 01:31:43;;;;;;;13.65;4.80;;;14.30;99.90;;;;;;4922441;28;20445;-88
2023/06/10 01:34:14;;;;;;;8.73;4.53;;;14.30;99.90;;;;;;4944140;29;20070;-89
2023/06/10 01:36:44;;;;;;;13.88;4.95;;;14.20;99.90;;;;;;4914505;29;20051;-89
2023/06/10 01:39:11;;;;;;;11.00;4.53;;;14.20;99.90;;;;;;4927370;28;20105;-90
2023/06/10 01:41:37;;;;;;;12.45;4.75;;;14.20;99.90;;;;;;4921328;29;20086;-89
2023/06/10 01:44:03;;;;;;;10.82;4.75;;;14.20;99.90;;;;;;4920611;29;20047;-89
2023/06/10 01:46:29;;;;;;;12.23;5.03;;;14.10;99.90;;;;;;4927359;28;20350;-89
2023/06/10 01:48:56;;;;;;;13.45;5.28;;;14.10;99.90;;;;;;4938282;28;20050;-89
2023/06/10 01:51:22;;;;;;;9.60;4.97;;;14.00;99.90;;;;;;4908749;29;20043;-89
2023/06/10 01:53:47;;;;;;;8.52;4.45;;;14.00;99.90;;;;;;4921799;28;20055;-88
2023/06/10 01:56:17;;;;;;;12.20;4.65;;;13.90;99.90;;;;;;4954825;28;20494;-89
2023/06/10 01:58:44;;;;;;;6.45;3.88;;;13.90;99.90;;;;;;4926012;28;20053;-88
2023/06/10 02:01:10;;;;;;;8.90;4.68;;;13.90;99.90;;;;;;4947356;29;20051;-88
2023/06/10 02:03:39;;;;;;;12.68;5.15;;;13.80;99.90;;;;;;4919880;29;20146;-88
2023/06/10 02:06:05;;;;;;;8.73;4.95;;;13.80;99.90;;;;;;4928034;28;20054;-88
2023/06/10 02:08:30;;;;;;;10.88;4.93;;;13.70;99.90;;;;;;4940315;29;20125;-88
2023/06/10 02:10:56;;;;;;;13.05;4.50;;;13.70;99.90;;;;;;4912116;29;20471;-89
2023/06/10 02:13:22;;;;;;;12.45;4.78;;;13.70;99.90;;;;;;4916456;28;20087;-89
2023/06/10 02:15:48;;;;;;;10.73;4.72;;;13.60;99.90;;;;;;4955881;28;20074;-89
2023/06/10 02:18:13;;;;;;;8.02;4.63;;;13.70;99.90;;;;;;4936959;29;20146;-88
2023/06/10 02:20:39;;;;;;;11.15;4.80;;;13.70;99.90;;;;;;4927714;28;20051;-89
2023/06/10 02:23:31;;;;;;;14.77;4.40;;;13.70;99.90;;;;;;4954279;28;20049;-90
2023/06/10 02:25:56;;;;;;;10.50;4.97;;;13.70;99.90;;;;;;4935200;29;20130;-89
2023/06/10 02:31:13;;;;;;;9.30;4.38;;;13.70;99.90;;;;;;4921044;28;20054;-89
2023/06/10 02:33:40;;;;;;;8.70;4.28;;;13.70;99.90;;;;;;4908397;29;20059;-89
2023/06/10 02:36:28;;;;;;;11.07;4.82;;;13.70;99.90;;;;;;4933045;28;20055;-89
2023/06/10 02:38:56;;;;;;;8.55;4.38;;;13.70;99.90;;;;;;4920512;29;20059;-88
2023/06/10 02:41:23;;;;;;;12.95;4.22;;;13.80;99.90;;;;;;4919574;29;20491;-89
2023/06/10 02:43:51;;;;;;;11.23;4.03;;;13.70;99.90;;;;;;4929565;28;20260;-89
2023/06/10 02:46:16;;;;;;;12.57;4.30;;;13.70;99.90;;;;;;4904760;29;20139;-88
2023/06/10 02:48:43;;;;;;;11.80;4.35;;;13.70;99.90;;;;;;4911468;29;20057;-89
2023/06/10 02:51:31;;;;;;;10.15;4.43;;;13.70;99.90;;;;;;4919885;29;20094;-88
2023/06/10 02:54:00;;;;;;;11.77;4.15;;;13.70;99.90;;;;;;4906822;28;20126;-90
2023/06/10 02:56:28;;;;;;;11.98;4.35;;;13.60;99.90;;;;;;4909446;29;20047;-89
2023/06/10 03:03:03;;;;;;;12.50;4.60;;;13.60;99.90;;;;;;4930950;29;20050;-89
2023/06/10 03:08:37;;;;;;;10.85;4.65;;;13.50;99.90;;;;;;4934218;29;20043;-89
2023/06/10 03:11:34;;;;;;;9.23;4.72;;;13.40;99.90;;;;;;4929856;29;20069;-88
2023/06/10 03:14:05;;;;;;;11.55;4.82;;;13.50;99.90;;;;;;4926173;28;20109;-88
2023/06/10 03:16:34;;;;;;;11.48;4.65;;;13.50;99.90;;;;;;4941013;28;20059;-90
2023/06/10 03:19:00;;;;;;;15.32;5.15;;;13.50;99.90;;;;;;4911966;29;20051;-89
2023/06/10 03:22:37;;;;;;;11.52;4.82;;;13.50;99.90;;;;;;4918019;29;20069;-89
2023/06/10 03:24:31;;;;;;;14.70;6.07;;;13.50;99.90;;;;;;4911405;29;20063;-89
2023/06/10 03:26:57;;;;;;;16.63;5.57;;;13.50;99.90;;;;;;4919931;29;20058;-89
2023/06/10 03:29:32;;;;;;;12.18;5.35;;;13.60;99.90;;;;;;4918434;29;20047;-88
2023/06/10 03:31:57;;;;;;;12.20;5.20;;;13.50;99.90;;;;;;4919122;29;20476;-89
2023/06/10 03:34:56;;;;;;;13.68;5.50;;;13.50;99.90;;;;;;4919581;29;20110;-89
2023/06/10 03:37:51;;;;;;;13.88;5.13;;;13.50;99.90;;;;;;4918930;29;20051;-88
2023/06/10 03:40:44;;;;;;;16.25;5.90;;;13.50;99.90;;;;;;4908517;29;20506;-89
2023/06/10 03:43:56;;;;;;;;;;;;;;;;;;;;;
2023/06/10 03:47:03;;;;;;;15.07;6.35;;;13.60;99.90;;;;;;4922633;29;20086;-89
2023/06/10 03:49:37;;;;;;;14.88;6.45;;;13.60;99.90;;;;;;4884603;29;20055;-89
2023/06/10 03:52:09;;;;;;;17.88;6.53;;;13.60;99.90;;;;;;4919659;29;20058;-88
2023/06/10 03:54:35;;;;;;;20.35;6.53;;;13.60;99.90;;;;;;4930770;23;20083;-89
2023/06/10 03:57:01;;;;;;;15.35;7.07;;;13.60;99.90;;;;;;4917975;29;20097;-89
2023/06/10 03:59:35;;;;;;;18.38;7.25;;;13.70;99.90;;;;;;4927694;29;20143;-89
2023/06/10 04:02:01;;;;;;;16.23;6.90;;;13.70;99.90;;;;;;4914485;29;20043;-89
2023/06/10 04:04:30;;;;;;;14.82;6.30;;;13.80;99.90;;;;;;4918429;29;20074;-88
2023/06/10 04:06:59;;;;;;;16.45;7.05;;;13.80;99.90;;;;;;4919041;28;20071;-89
2023/06/10 04:09:28;;;;;;;17.13;7.30;;;13.90;99.90;;;;;;4917896;29;20621;-88
2023/06/10 04:12:12;;;;;;;;;;;;;;;;;;;;;
2023/06/10 04:15:12;;;;;;;13.95;6.55;;;13.90;99.90;;;;;;4930506;29;20063;-89
2023/06/10 04:18:29;;;;;;;15.85;7.63;;;13.90;99.90;;;;;;4950408;28;20047;-89
2023/06/10 04:24:30;;;;;;;15.23;7.10;;;14.00;99.90;;;;;;4949720;23;20052;-89
2023/06/10 04:28:01;;;;;;;15.70;7.07;;;14.00;99.90;;;;;;4918107;29;20051;-89
2023/06/10 04:30:10;;;;;;;18.70;6.50;;;14.10;99.90;;;;;;4927190;29;20055;-89
2023/06/10 04:32:57;;;;;;;20.77;7.30;;;14.10;99.90;;;;;;4918201;29;20055;-89
2023/06/10 04:35:23;;;;;;;17.80;7.28;;;14.20;99.90;;;;;;4923209;29;20549;-88
2023/06/10 04:37:49;;;;;;;14.38;6.32;;;14.20;99.90;;;;;;4917750;29;20135;-89
2023/06/10 04:40:57;;;;;;;18.10;6.97;;;14.20;99.90;;;;;;4916958;29;20484;-89
2023/06/10 04:43:04;;;;;;;15.88;6.63;;;14.20;99.90;;;;;;4912296;29;20051;-88
2023/06/10 04:45:30;;;;;;;17.42;6.75;;;14.30;99.90;;;;;;4917704;29;20073;-89
2023/06/10 04:49:16;;;;;;;16.15;7.03;;;13.90;99.90;;;;;;4923374;29;20102;-89
2023/06/10 04:51:23;;;;;;;14.75;6.47;;;14.40;99.90;;;;;;4909950;29;20051;-89
2023/06/10 04:53:49;;;;;;;13.05;7.00;;;14.40;99.90;;;;;;4917817;29;20376;-89
2023/06/10 04:56:16;;;;;;;21.45;7.60;;;14.50;99.90;;;;;;4926355;29;20054;-89
2023/06/10 04:59:00;;;;;;;17.70;6.70;;;14.40;99.90;;;;;;4952219;28;20062;-89
2023/06/10 05:01:32;;;;;;;17.35;6.88;;;14.90;99.90;;;;;;4926404;29;20055;-89
2023/06/10 05:04:43;;;;;;;15.73;7.20;;;14.70;99.90;;;;;;4918441;29;20130;-88
2023/06/10 05:07:36;;;;;;;16.40;6.53;;;14.80;99.90;;;;;;4935170;29;20046;-88
2023/06/10 05:20:49;;;;;;;12.63;5.50;;;15.10;99.90;;;;;;4917120;29;20044;-89
2023/06/10 05:23:23;;;;;;;15.27;6.75;;;15.20;99.90;;;;;;4918820;29;20055;-89
2023/06/10 05:25:52;;;;;;;15.85;6.15;;;15.30;99.90;;;;;;4910765;29;20083;-89
2023/06/10 05:28:39;;;;;;;17.70;5.72;;;15.30;99.90;;;;;;4920795;29;20050;-89
2023/06/10 05:31:35;;;;;;;12.35;5.65;;;15.40;99.90;;;;;;4915362;29;20039;-89
2023/06/10 05:35:01;;;;;;;;;;;;;;;;;;;;;
2023/06/10 05:41:14;;;;;;;16.08;6.32;;;15.50;99.90;;;;;;4923144;29;20051;-89
2023/06/10 05:44:12;;;;;;;12.45;5.50;;;15.70;99.90;;;;;;4835088;29;20063;-90
2023/06/10 05:47:21;;;;;;;16.13;6.25;;;15.80;99.90;;;;;;4913368;29;20126;-90
2023/06/10 05:49:49;;;;;;;16.52;6.07;;;16.00;99.90;;;;;;4910372;29;20048;-90
2023/06/10 05:52:40;;;;;;;17.63;5.53;;;16.10;99.90;;;;;;4879908;29;20062;-89
2023/06/10 05:55:38;;;;;;;14.48;5.75;;;16.10;99.90;;;;;;4908944;29;20051;-89
2023/06/10 05:58:04;;;;;;;17.02;5.82;;;16.20;99.90;;;;;;4913409;29;20056;-89
2023/06/10 06:00:30;;;;;;;13.63;5.65;;;16.30;99.90;;;;;;4932172;29;20581;-89
2023/06/10 06:02:58;;;;;;;11.85;5.55;;;16.40;99.90;;;;;;4901380;29;20040;-88
2023/06/10 06:08:13;;;;;;;14.27;6.03;;;16.50;99.90;;;;;;4864375;29;20134;-88
2023/06/10 06:10:39;;;;;;;11.98;5.55;;;16.50;99.90;;;;;;4915165;29;20050;-89
2023/06/10 06:16:18;;;;;;;15.50;6.07;;;16.60;99.90;;;;;;4925716;29;20099;-89
2023/06/10 06:22:34;;;;;;;;;;;;;;;;;;;;;
2023/06/10 06:28:35;;;;;;;19.80;5.28;;;17.00;99.90;;;;;;4934210;29;20055;-90
2023/06/10 06:31:23;;;;;;;17.27;5.45;;;17.00;99.90;;;;;;4951418;29;20074;-92
2023/06/10 06:33:49;;;;;;;15.45;5.75;;;17.20;99.90;;;;;;4919747;29;20067;-91
2023/06/10 06:36:15;;;;;;;13.30;5.20;;;17.30;99.90;;;;;;4919705;29;20047;-86
2023/06/10 06:38:40;;;;;;;14.40;5.18;;;17.40;99.90;;;;;;4917979;29;20035;-89
2023/06/10 06:41:06;;;;;;;10.98;4.82;;;17.50;99.90;;;;;;4918756;29;20415;-89
2023/06/10 06:43:32;;;;;;;14.20;4.50;;;17.60;99.90;;;;;;4919150;29;20040;-92
2023/06/10 06:46:08;;;;;;;12.27;4.72;;;17.60;99.90;;;;;;4907695;29;20554;-92
2023/06/10 06:48:36;;;;;;;11.23;4.65;;;17.70;99.90;;;;;;4920855;29;20061;-93
2023/06/10 06:51:02;;;;;;;10.00;5.18;;;17.80;99.90;;;;;;4920906;29;20043;-93
2023/06/10 06:53:31;;;;;;;10.02;4.38;;;17.90;99.90;;;;;;4920012;29;20365;-92
2023/06/10 06:55:56;;;;;;;13.63;5.13;;;17.90;99.90;;;;;;4915900;29;20090;-92
2023/06/10 06:58:22;;;;;;;14.20;4.90;;;18.10;99.90;;;;;;4912977;29;20090;-92
2023/06/10 07:00:48;;;;;;;29.00;5.43;;;18.20;99.90;;;;;;4921223;29;20126;-94
2023/06/10 07:03:14;;;;;;;16.05;4.88;;;18.30;99.90;;;;;;4917459;29;20103;-91
2023/06/10 07:05:40;;;;;;;12.45;4.80;;;18.40;99.90;;;;;;4924604;28;20043;-94
2023/06/10 07:08:06;;;;;;;14.27;4.90;;;18.40;99.90;;;;;;4915898;29;20089;-94
2023/06/10 07:10:31;;;;;;;14.15;4.18;;;18.50;99.90;;;;;;4922674;28;20038;-94
2023/06/10 07:13:06;;;;;;;10.82;3.75;;;18.60;99.90;;;;;;4919061;29;20593;-93
2023/06/10 07:15:35;;;;;;;12.90;4.95;;;18.70;99.90;;;;;;4919473;29;20486;-93
2023/06/10 07:18:01;;;;;;;10.65;4.18;;;18.70;99.90;;;;;;4907893;29;20048;-93
2023/06/10 07:20:26;;;;;;;9.68;4.28;;;18.80;99.90;;;;;;4918762;29;20058;-91
2023/06/10 07:22:52;;;;;;;12.85;4.35;;;18.80;99.90;;;;;;4920035;29;20126;-93
2023/06/10 07:25:18;;;;;;;11.10;4.40;;;18.90;99.90;;;;;;4919479;29;20055;-93
2023/06/10 07:27:44;;;;;;;10.70;3.97;;;19.00;99.90;;;;;;4918553;28;20487;-91
2023/06/10 07:30:10;;;;;;;10.38;3.70;;;19.10;99.90;;;;;;4919012;29;20364;-92
2023/06/10 07:32:36;;;;;;;15.65;5.18;;;19.20;99.90;;;;;;4919910;29;20043;-91
2023/06/10 07:35:02;;;;;;;11.50;4.03;;;19.30;99.90;;;;;;4909750;29;20094;-91
2023/06/10 07:37:28;;;;;;;12.52;4.45;;;19.40;99.90;;;;;;4919608;29;20083;-95
2023/06/10 07:39:54;;;;;;;13.00;3.88;;;19.50;99.90;;;;;;4914172;29;20071;-93
2023/06/10 07:42:19;;;;;;;11.75;4.10;;;19.60;99.90;;;;;;4916151;29;20073;-94
2023/06/10 07:44:45;;;;;;;11.20;4.05;;;19.60;99.90;;;;;;4918810;29;20050;-91
2023/06/10 07:47:11;;;;;;;9.30;3.30;;;19.60;99.90;;;;;;4918966;29;20474;-91
2023/06/10 07:49:37;;;;;;;11.15;4.15;;;19.70;99.90;;;;;;4917038;29;20043;-93
2023/06/10 07:52:02;;;;;;;12.00;4.05;;;19.90;99.90;;;;;;4919355;29;20066;-93
2023/06/10 07:54:28;;;;;;;12.38;3.50;;;19.90;99.90;;;;;;4918500;29;20490;-94
2023/06/10 07:56:54;;;;;;;10.23;3.42;;;20.00;99.90;;;;;;4918930;29;20085;-95
2023/06/10 07:59:20;;;;;;;10.65;4.00;;;20.00;99.90;;;;;;4918713;29;20067;-95
2023/06/10 08:01:46;;;;;;;11.10;3.97;;;20.00;99.90;;;;;;4921332;29;20046;-91
2023/06/10 08:04:12;;;;;;;10.95;4.13;;;20.10;99.90;;;;;;4942613;28;20133;-96
2023/06/10 08:06:37;;;;;;;8.35;3.30;;;20.20;99.90;;;;;;4920981;29;20188;-96
2023/06/10 08:09:04;;;;;;;9.90;3.83;;;20.20;99.90;;;;;;4931169;29;20055;-96
2023/06/10 08:11:30;;;;;;;9.30;3.47;;;20.20;99.90;;;;;;4948841;23;20062;-96
2023/06/10 08:13:56;;;;;;;11.35;3.38;;;20.30;99.90;;;;;;4947954;29;20506;-96
2023/06/10 08:16:22;;;;;;;12.15;3.90;;;20.40;99.90;;;;;;4938811;28;20047;-96
2023/06/10 08:18:50;;;;;;;9.52;3.38;;;20.50;99.90;;;;;;4936342;29;20039;-96
2023/06/10 08:21:16;;;;;;;12.00;3.80;;;20.70;99.90;;;;;;5061062;23;20064;-96
2023/06/10 08:23:41;;;;;;;10.95;3.42;;;20.70;99.90;;;;;;4924143;29;20086;-96
2023/06/10 08:26:07;;;;;;;9.82;3.63;;;20.90;99.90;;;;;;4945952;29;20363;-96
2023/06/10 08:28:36;;;;;;;12.68;3.95;;;21.00;99.90;;;;;;4927234;29;20102;-96
2023/06/10 08:31:02;;;;;;;14.10;3.78;;;21.00;99.90;;;;;;4929715;29;20055;-96
2023/06/10 08:33:28;;;;;;;8.60;3.38;;;21.00;99.90;;;;;;4921081;29;20507;-95
2023/06/10 08:35:56;;;;;;;12.90;4.15;;;21.10;99.90;;;;;;4910061;29;20043;-96
2023/06/10 08:38:25;;;;;;;11.75;3.30;;;21.20;99.90;;;;;;4928289;29;20086;-96
2023/06/10 08:40:57;;;;;;;11.98;3.70;;;21.20;99.90;;;;;;4929613;29;20058;-95
2023/06/10 08:43:36;;;;;;;8.68;2.83;;;21.30;99.90;;;;;;4945231;29;20054;-96
2023/06/10 08:46:03;;;;;;;11.88;3.80;;;21.40;99.90;;;;;;4923339;29;20538;-96
2023/06/10 08:48:42;;;;;;;9.13;3.05;;;21.40;99.90;;;;;;4925713;29;20055;-96
2023/06/10 08:51:10;;;;;;;8.40;2.85;;;21.50;99.90;;;;;;4927997;29;20161;-96
2023/06/10 08:53:57;;;;;;;9.95;3.70;;;21.50;99.90;;;;;;4956353;29;20043;-96
2023/06/10 08:56:26;;;;;;;7.90;3.20;;;21.60;99.90;;;;;;4937280;28;20039;-96
2023/06/10 08:58:53;;;;;;;12.07;2.97;;;21.80;99.90;;;;;;4924802;28;20111;-96
2023/06/10 09:01:23;;;;;;;9.65;3.30;;;21.90;99.90;;;;;;4922426;29;20642;-96
2023/06/10 09:03:52;;;;;;;8.45;3.03;;;22.00;99.90;;;;;;4939264;29;20081;-96
2023/06/10 09:06:24;;;;;;;9.63;3.25;;;22.00;99.90;;;;;;4932381;29;20043;-96
2023/06/10 09:08:54;;;;;;;10.02;3.05;;;22.10;99.90;;;;;;4926280;29;20131;-96
2023/06/10 09:11:20;;;;;;;12.38;3.20;;;22.10;99.90;;;;;;4917951;29;20054;-96
2023/06/10 09:13:48;;;;;;;8.13;3.10;;;22.30;99.90;;;;;;4930595;29;20047;-96
2023/06/10 09:16:16;;;;;;;10.40;3.38;;;22.30;99.90;;;;;;4933300;29;20071;-96
2023/06/10 09:18:42;;;;;;;9.10;3.00;;;22.40;99.90;;;;;;4926110;29;20075;-96
2023/06/10 09:21:08;;;;;;;13.93;3.65;;;22.50;99.90;;;;;;4931425;29;20059;-96
2023/06/10 09:23:41;;;;;;;10.88;2.92;;;22.40;99.90;;;;;;4921564;29;20032;-96
2023/06/10 09:26:11;;;;;;;12.93;3.35;;;22.50;99.90;;;;;;4924218;29;20046;-96
2023/06/10 09:28:40;;;;;;;9.73;3.10;;;22.60;99.90;;;;;;4927814;28;20491;-95
2023/06/10 09:31:11;;;;;;;7.80;3.05;;;22.50;99.90;;;;;;4937549;29;20419;-94
2023/06/10 09:33:50;;;;;;;13.98;3.58;;;22.80;99.90;;;;;;4923595;29;20101;-95
2023/06/10 09:36:25;;;;;;;12.63;3.00;;;22.80;99.90;;;;;;4921496;29;20438;-94
2023/06/10 09:38:51;;;;;;;11.43;3.45;;;22.90;99.90;;;;;;4920718;29;20471;-96
2023/06/10 09:41:35;;;;;;;10.13;3.33;;;22.90;99.90;;;;;;4924612;29;20041;-96
2023/06/10 09:44:25;;;;;;;10.40;2.92;;;22.90;99.90;;;;;;4921973;29;20066;-96
2023/06/10 09:46:51;;;;;;;11.93;3.17;;;23.00;99.90;;;;;;4945712;28;20065;-94
2023/06/10 09:49:29;;;;;;;10.82;3.10;;;23.10;99.90;;;;;;4921266;29;20150;-95
2023/06/10 09:51:57;;;;;;;10.57;2.97;;;23.20;99.90;;;;;;4921947;29;20083;-96
2023/06/10 09:54:24;;;;;;;6.38;2.85;;;23.30;99.90;;;;;;4923467;29;20134;-95
2023/06/10 09:56:52;;;;;;;14.57;3.20;;;23.40;99.90;;;;;;4920743;29;20051;-96
2023/06/10 09:59:34;;;;;;;12.48;3.30;;;23.60;99.90;;;;;;4915177;29;20169;-95
2023/06/10 10:02:00;;;;;;;8.02;3.13;;;23.60;99.90;;;;;;4915698;29;20483;-96
2023/06/10 10:04:26;;;;;;;12.23;3.83;;;23.70;99.90;;;;;;4922701;29;20047;-96
2023/06/10 10:07:01;;;;;;;12.18;3.38;;;23.70;99.90;;;;;;4923739;29;20051;-91
2023/06/10 10:09:30;;;;;;;10.20;3.28;;;23.70;99.90;;;;;;4916940;29;20082;-90
2023/06/10 10:12:01;;;;;;;9.35;3.15;;;23.80;99.90;;;;;;4918945;29;20035;-89
2023/06/10 10:14:30;;;;;;;11.82;3.65;;;23.90;99.90;;;;;;4918463;29;20054;-94
2023/06/10 10:17:01;;;;;;;24.52;4.28;;;24.00;99.90;;;;;;4918810;29;20054;-92
2023/06/10 10:23:02;;;;;;;14.43;3.33;;;24.10;99.90;;;;;;4897819;29;20395;-93
2023/06/10 10:25:53;;;;;;;;;;;;;;;;;;;;;
2023/06/10 10:28:58;;;;;;;13.82;3.80;;;24.20;99.90;;;;;;5041441;23;20180;-94
2023/06/10 10:31:37;;;;;;;10.52;2.80;;;24.20;99.90;;;;;;4952173;28;20106;-93
2023/06/10 10:34:09;;;;;;;8.00;2.50;;;24.20;99.90;;;;;;4949191;28;20160;-92
2023/06/10 10:36:46;;;;;;;8.43;3.22;;;24.30;99.90;;;;;;4964039;28;20046;-93
2023/06/10 10:39:12;;;;;;;13.35;3.67;;;24.30;99.90;;;;;;4921370;23;20543;-92
2023/06/10 10:41:49;;;;;;;13.30;3.33;;;24.30;99.90;;;;;;4920864;29;20169;-92
2023/06/10 10:44:18;;;;;;;9.88;3.20;;;24.30;99.90;;;;;;4920424;29;20058;-92
2023/06/10 10:46:50;;;;;;;11.13;3.03;;;24.40;99.90;;;;;;4917303;29;20055;-94
2023/06/10 10:49:22;;;;;;;12.48;3.45;;;24.50;99.90;;;;;;4917698;29;20039;-93
2023/06/10 10:52:06;;;;;;;9.63;3.65;;;24.70;99.90;;;;;;4920173;29;20098;-94
2023/06/10 10:55:02;;;;;;;9.18;3.38;;;24.70;99.90;;;;;;4918311;29;20606;-95
2023/06/10 10:57:41;;;;;;;12.52;3.70;;;24.70;99.90;;;;;;4884459;29;20097;-94
2023/06/10 11:00:10;;;;;;;11.43;3.53;;;25.00;99.90;;;;;;4911365;29;20058;-89
2023/06/10 11:02:40;;;;;;;9.75;3.90;;;24.80;99.90;;;;;;4901099;29;20095;-93
2023/06/10 11:05:35;;;;;;;9.30;3.47;;;24.80;99.90;;;;;;4919261;23;20142;-94
2023/06/10 11:08:22;;;;;;;10.30;3.40;;;24.60;99.90;;;;;;4933286;28;20059;-93
2023/06/10 11:10:53;;;;;;;14.23;2.83;;;24.90;99.90;;;;;;4930717;29;20044;-90
2023/06/10 11:13:30;;;;;;;16.30;3.47;;;25.00;99.90;;;;;;4925459;28;20050;-89
2023/06/10 11:15:58;;;;;;;11.68;3.90;;;25.10;99.90;;;;;;4927816;28;20046;-89
2023/06/10 11:18:39;;;;;;;9.90;3.45;;;25.10;99.90;;;;;;4941425;28;20062;-89
2023/06/10 11:21:17;;;;;;;7.78;2.83;;;25.30;99.90;;;;;;4953667;28;20051;-90
2023/06/10 11:23:43;;;;;;;10.98;3.30;;;25.30;99.90;;;;;;4941173;28;20192;-89
2023/06/10 11:26:34;;;;;;;11.18;3.53;;;25.40;99.90;;;;;;4937565;28;20047;-89
2023/06/10 11:29:15;;;;;;;12.20;3.10;;;25.40;99.90;;;;;;4928603;28;20050;-89
2023/06/10 11:31:45;;;;;;;12.30;3.10;;;25.50;99.90;;;;;;4937599;28;20499;-89
2023/06/10 11:34:12;;;;;;;10.05;2.65;;;25.40;99.90;;;;;;4937549;28;20043;-89
2023/06/10 11:36:40;;;;;;;9.27;3.45;;;25.60;99.90;;;;;;4938335;28;20035;-89
2023/06/10 11:39:15;;;;;;;8.60;3.33;;;25.70;99.90;;;;;;4937736;28;20043;-89
2023/06/10 11:41:41;;;;;;;15.30;3.22;;;25.70;99.90;;;;;;4925335;28;20043;-89
2023/06/10 11:44:12;;;;;;;8.63;2.65;;;25.80;99.90;;;;;;4938132;28;20043;-88
2023/06/10 11:46:39;;;;;;;7.57;2.90;;;25.90;99.90;;;;;;4937577;28;20050;-88
2023/06/10 11:49:06;;;;;;;7.82;2.65;;;26.00;99.90;;;;;;4937798;28;20300;-90
2023/06/10 11:51:38;;;;;;;6.78;2.80;;;26.00;99.90;;;;;;4938308;28;20195;-90
2023/06/10 11:54:08;;;;;;;8.07;2.80;;;26.00;99.90;;;;;;4938095;28;20494;-91
2023/06/10 11:56:43;;;;;;;11.00;3.00;;;26.10;99.90;;;;;;4937558;28;20046;-91
2023/06/10 11:59:14;;;;;;;10.52;2.45;;;26.10;99.90;;;;;;4936191;28;20047;-91
2023/06/10 12:01:44;;;;;;;7.35;2.15;;;26.10;99.70;;;;;;4942271;28;20046;-90
2023/06/10 12:04:13;;;;;;;8.10;2.67;;;26.10;99.80;;;;;;4933735;28;20055;-91
2023/06/10 12:06:47;;;;;;;6.93;2.63;;;26.20;98.90;;;;;;4938020;28;20051;-90
2023/06/10 12:09:29;;;;;;;9.63;3.30;;;26.20;98.60;;;;;;4928840;28;20042;-90
2023/06/10 12:11:59;;;;;;;11.32;3.25;;;26.30;99.90;;;;;;4919639;28;20035;-90
2023/06/10 12:14:57;;;;;;;11.65;3.20;;;26.30;99.90;;;;;;4928849;28;20133;-93
2023/06/10 12:17:30;;;;;;;7.38;3.00;;;26.40;99.90;;;;;;4927137;28;20047;-96
2023/06/10 12:19:56;;;;;;;5.30;2.15;;;26.30;99.90;;;;;;4938670;28;20047;-88
2023/06/10 12:23:08;;;;;;;9.68;2.80;;;26.40;99.90;;;;;;4939577;28;20055;-91
2023/06/10 12:25:48;;;;;;;11.90;3.20;;;26.50;99.70;;;;;;4937448;28;20050;-91
2023/06/10 12:28:15;;;;;;;7.68;2.78;;;26.50;99.90;;;;;;4937780;28;20043;-91
2023/06/10 12:30:44;;;;;;;9.88;3.20;;;26.40;99.90;;;;;;4937037;28;20074;-91
2023/06/10 12:33:28;;;;;;;7.78;2.42;;;26.50;99.90;;;;;;4937434;28;20454;-92
2023/06/10 12:36:32;;;;;;;13.23;3.30;;;26.50;99.90;;;;;;4953121;28;20047;-91
2023/06/10 12:39:13;;;;;;;9.27;3.47;;;26.50;99.90;;;;;;4925866;29;20047;-91
2023/06/10 12:41:48;;;;;;;9.98;3.30;;;26.60;99.90;;;;;;4930894;28;20066;-91
2023/06/10 12:44:14;;;;;;;10.82;2.60;;;26.60;99.80;;;;;;4934761;28;20104;-91
2023/06/10 12:46:40;;;;;;;8.35;2.75;;;26.60;99.00;;;;;;4931169;28;20051;-91
2023/06/10 12:49:08;;;;;;;8.57;2.83;;;26.70;99.50;;;;;;4937604;28;20046;-92
2023/06/10 12:51:52;;;;;;;12.07;3.28;;;26.70;99.90;;;;;;4936690;28;20043;-90
2023/06/10 12:54:30;;;;;;;9.98;3.80;;;26.60;99.90;;;;;;4935499;28;20105;-91
2023/06/10 12:56:56;;;;;;;9.18;3.03;;;26.50;99.90;;;;;;4933779;28;20407;-92
2023/06/10 12:59:21;;;;;;;6.70;3.03;;;26.40;99.90;;;;;;4936394;28;20047;-91
2023/06/10 13:01:52;;;;;;;8.80;2.83;;;26.30;99.70;;;;;;4937787;28;20093;-91
2023/06/10 13:04:18;;;;;;;11.05;2.63;;;26.30;99.70;;;;;;4936862;28;20490;-92
2023/06/10 13:06:48;;;;;;;11.75;2.88;;;26.20;99.90;;;;;;4936527;23;20055;-92
2023/06/10 13:09:22;;;;;;;10.55;3.17;;;26.20;99.90;;;;;;4921516;28;20058;-92
2023/06/10 13:11:48;;;;;;;10.25;2.78;;;26.20;99.90;;;;;;4925498;28;20039;-95
2023/06/10 13:14:14;;;;;;;7.95;2.50;;;26.30;99.90;;;;;;4933286;28;20053;-92
2023/06/10 13:16:40;;;;;;;10.23;2.63;;;26.30;99.90;;;;;;4922974;28;20055;-93
2023/06/10 13:19:06;;;;;;;7.13;2.63;;;26.20;99.90;;;;;;4920155;29;20337;-89
2023/06/10 13:21:33;;;;;;;10.25;3.00;;;26.20;99.90;;;;;;4917972;29;20048;-90
2023/06/10 13:23:59;;;;;;;12.65;3.47;;;26.20;99.80;;;;;;4919299;29;20047;-90
2023/06/10 13:26:25;;;;;;;8.95;2.65;;;26.20;99.80;;;;;;4919117;28;20186;-89
2023/06/10 13:28:51;;;;;;;11.73;2.97;;;26.20;99.90;;;;;;4922987;29;20082;-91
2023/06/10 13:31:17;;;;;;;10.73;3.13;;;26.20;99.80;;;;;;4924148;28;20121;-90
2023/06/10 13:33:43;;;;;;;6.95;2.80;;;26.20;99.20;;;;;;4931458;28;20046;-90
2023/06/10 13:36:09;;;;;;;9.52;2.58;;;26.20;98.90;;;;;;4927935;28;20506;-92
2023/06/10 13:38:35;;;;;;;9.73;2.85;;;26.20;98.70;;;;;;4923862;29;20506;-91
2023/06/10 13:41:01;;;;;;;7.88;2.40;;;26.10;98.60;;;;;;4936780;28;20054;-91
2023/06/10 13:43:27;;;;;;;4.75;2.42;;;26.20;98.60;;;;;;4942145;28;20125;-91
2023/06/10 13:45:52;;;;;;;13.27;2.92;;;26.20;99.30;;;;;;4941218;28;20579;-90
2023/06/10 13:48:21;;;;;;;9.52;2.85;;;26.20;98.70;;;;;;4941768;28;20197;-90
2023/06/10 13:50:46;;;;;;;9.68;2.45;;;26.20;98.70;;;;;;4941601;28;20080;-91
2023/06/10 13:53:12;;;;;;;15.55;2.80;;;26.20;98.70;;;;;;4940919;28;20051;-90
2023/06/10 13:55:38;;;;;;;9.05;2.85;;;26.20;98.00;;;;;;4938160;28;20074;-92